createdAt,value
2018-10-04T00:00:38.145Z,94.25
2018-10-04T00:01:38.450Z,94.52
2018-10-04T00:02:38.760Z,94.74
2018-10-04T00:03:39.176Z,94.65
2018-10-04T00:04:39.625Z,94.93
2018-10-04T00:05:39.958Z,94.41
2018-10-04T00:06:40.535Z,94.61
2018-10-04T00:07:41.157Z,94.77
2018-10-04T00:08:41.462Z,94.79
2018-10-04T00:09:41.681Z,94.45
2018-10-04T00:10:42.016Z,94.69
2018-10-04T00:11:42.161Z,94.66
2018-10-04T00:12:42.508Z,94.50
2018-10-04T00:13:42.810Z,94.12
2018-10-04T00:14:43.131Z,94.45
2018-10-04T00:15:43.412Z,94.85
2018-10-04T00:16:43.824Z,95.13
2018-10-04T00:17:44.066Z,94.55
2018-10-04T00:18:43.496Z,94.97
2018-10-04T00:19:44.755Z,94.89
2018-10-04T00:20:44.975Z,94.70
2018-10-04T00:21:45.596Z,94.42
2018-10-04T00:22:46.044Z,94.43
2018-10-04T00:23:46.456Z,94.60
2018-10-04T00:24:46.775Z,94.58
2018-10-04T00:25:47.038Z,94.31
2018-10-04T00:26:47.411Z,94.37
2018-10-04T00:27:47.760Z,94.64
2018-10-04T00:28:48.121Z,94.37
2018-10-04T00:29:48.436Z,94.67
2018-10-04T00:30:48.775Z,94.73
2018-10-04T00:31:49.176Z,94.95
2018-10-04T00:32:49.575Z,94.71
2018-10-04T00:33:49.901Z,94.92
2018-10-04T00:34:50.219Z,95.02
2018-10-04T00:35:50.529Z,94.72
2018-10-04T00:36:51.017Z,94.52
2018-10-04T00:36:59.382Z,94.71
2018-10-04T00:38:00.785Z,94.69
2018-10-04T00:39:01.156Z,94.78
2018-10-04T00:40:01.501Z,94.86
2018-10-04T00:41:01.881Z,94.65
2018-10-04T00:42:01.335Z,94.72
2018-10-04T00:43:02.792Z,94.87
2018-10-04T00:44:03.108Z,94.60
2018-10-04T00:45:03.433Z,94.97
2018-10-04T00:46:04.016Z,94.72
2018-10-04T00:47:03.155Z,94.43
2018-10-04T00:48:04.496Z,94.36
2018-10-04T00:49:04.800Z,94.54
2018-10-04T00:50:05.089Z,94.49
2018-10-04T00:51:05.529Z,94.58
2018-10-04T00:52:06.040Z,94.13
2018-10-04T00:53:06.317Z,94.38
2018-10-04T00:54:06.540Z,94.53
2018-10-04T00:55:06.845Z,94.57
2018-10-04T00:56:07.201Z,94.51
2018-10-04T00:57:07.527Z,94.47
2018-10-04T00:58:08.275Z,94.43
2018-10-04T00:59:08.569Z,94.39
2018-10-04T01:00:08.934Z,94.77
2018-10-04T01:01:09.436Z,94.90
2018-10-04T01:02:09.778Z,94.76
2018-10-04T01:03:10.702Z,94.78
2018-10-04T01:04:10.259Z,95.02
2018-10-04T01:05:11.722Z,95.19
2018-10-04T01:06:10.991Z,94.97
2018-10-04T01:07:12.449Z,94.72
2018-10-04T01:08:12.826Z,95.12
2018-10-04T01:09:13.140Z,95.06
2018-10-04T01:10:13.587Z,95.56
2018-10-04T01:11:14.021Z,95.60
2018-10-04T01:12:14.389Z,95.79
2018-10-04T01:13:14.775Z,95.55
2018-10-04T01:14:15.066Z,95.72
2018-10-04T01:15:15.467Z,95.88
2018-10-04T01:16:15.815Z,95.85
2018-10-04T01:17:16.101Z,95.92
2018-10-04T01:18:16.377Z,96.07
2018-10-04T01:19:16.636Z,96.00
2018-10-04T01:20:17.237Z,96.11
2018-10-04T01:21:17.609Z,96.11
2018-10-04T01:22:17.955Z,96.08
2018-10-04T01:23:18.187Z,95.74
2018-10-04T01:24:18.509Z,95.47
2018-10-04T01:25:18.869Z,95.42
2018-10-04T01:25:26.943Z,95.27
2018-10-04T01:26:28.193Z,95.30
2018-10-04T01:27:28.438Z,95.50
2018-10-04T01:28:28.723Z,95.75
2018-10-04T01:29:29.070Z,95.55
2018-10-04T01:30:29.447Z,95.61
2018-10-04T01:31:29.805Z,95.52
2018-10-04T01:32:29.026Z,95.62
2018-10-04T01:33:30.349Z,95.76
2018-10-04T01:34:30.614Z,95.66
2018-10-04T01:35:30.880Z,95.77
2018-10-04T01:36:31.522Z,95.68
2018-10-04T01:37:31.831Z,95.88
2018-10-04T01:38:32.134Z,95.91
2018-10-04T01:39:32.689Z,95.88
2018-10-04T01:40:32.934Z,95.84
2018-10-04T01:41:33.451Z,95.67
2018-10-04T01:42:33.752Z,95.56
2018-10-04T01:43:34.053Z,95.78
2018-10-04T01:44:34.479Z,95.92
2018-10-04T01:45:34.909Z,95.84
2018-10-04T01:46:35.255Z,95.64
2018-10-04T01:47:35.757Z,96.06
2018-10-04T01:48:36.119Z,96.29
2018-10-04T01:49:36.411Z,95.80
2018-10-04T01:50:36.742Z,95.65
2018-10-04T01:51:36.839Z,95.35
2018-10-04T01:52:37.900Z,95.57
2018-10-04T01:53:37.866Z,95.83
2018-10-04T01:54:38.412Z,95.57
2018-10-04T01:55:38.923Z,95.77
2018-10-04T01:56:39.308Z,95.59
2018-10-04T01:57:39.608Z,95.38
2018-10-04T01:58:40.365Z,95.55
2018-10-04T01:59:40.593Z,95.31
2018-10-04T02:00:41.173Z,95.46
2018-10-04T02:01:41.780Z,95.34
2018-10-04T02:02:42.218Z,95.28
2018-10-04T02:03:42.698Z,95.20
2018-10-04T02:04:43.083Z,94.76
2018-10-04T02:05:43.619Z,94.93
2018-10-04T02:06:43.731Z,95.02
2018-10-04T02:07:44.551Z,95.27
2018-10-04T02:08:47.438Z,95.60
2018-10-04T02:09:45.254Z,95.54
2018-10-04T02:10:45.552Z,95.46
2018-10-04T02:11:46.056Z,95.25
2018-10-04T02:12:46.542Z,95.18
2018-10-04T02:13:47.249Z,95.43
2018-10-04T02:14:48.644Z,95.74
2018-10-04T02:15:48.874Z,95.63
2018-10-04T02:16:48.714Z,95.56
2018-10-04T02:17:48.799Z,95.14
2018-10-04T02:18:48.861Z,95.60
2018-10-04T02:19:50.571Z,95.71
2018-10-04T02:20:50.285Z,95.44
2018-10-04T02:21:51.010Z,95.99
2018-10-04T02:22:51.476Z,96.08
2018-10-04T02:23:53.430Z,95.80
2018-10-04T02:24:52.596Z,95.79
2018-10-04T02:25:53.516Z,95.65
2018-10-04T02:26:53.943Z,95.45
2018-10-04T02:27:54.126Z,95.59
2018-10-04T02:28:54.967Z,95.70
2018-10-04T02:29:54.981Z,95.65
2018-10-04T02:30:56.871Z,95.78
2018-10-04T02:31:56.270Z,95.54
2018-10-04T02:32:57.603Z,95.88
2018-10-04T02:33:56.958Z,95.94
2018-10-04T02:34:57.030Z,96.52
2018-10-04T02:35:57.441Z,96.27
2018-10-04T02:36:57.573Z,96.30
2018-10-04T02:37:58.019Z,96.54
2018-10-04T02:38:58.897Z,96.56
2018-10-04T02:40:00.252Z,96.48
2018-10-04T02:41:00.278Z,96.24
2018-10-04T02:42:00.482Z,96.36
2018-10-04T02:42:10.068Z,96.61
2018-10-04T02:43:09.138Z,96.65
2018-10-04T02:44:09.244Z,96.59
2018-10-04T02:45:09.537Z,96.63
2018-10-04T02:46:09.912Z,96.27
2018-10-04T02:47:10.475Z,96.34
2018-10-04T02:48:10.948Z,96.33
2018-10-04T02:49:11.358Z,96.01
2018-10-04T02:50:13.328Z,95.94
2018-10-04T02:51:12.106Z,96.56
2018-10-04T02:52:13.398Z,96.57
2018-10-04T02:53:12.918Z,96.29
2018-10-04T02:54:13.422Z,96.44
2018-10-04T02:55:14.171Z,96.15
2018-10-04T02:56:14.489Z,95.69
2018-10-04T02:57:15.291Z,96.07
2018-10-04T02:58:16.236Z,96.35
2018-10-04T02:59:16.278Z,96.54
2018-10-04T03:00:17.173Z,96.51
2018-10-04T03:01:17.032Z,96.36
2018-10-04T03:02:17.724Z,96.29
2018-10-04T03:03:17.976Z,96.51
2018-10-04T03:04:18.332Z,96.33
2018-10-04T03:05:18.976Z,96.37
2018-10-04T03:06:19.203Z,96.41
2018-10-04T03:07:21.113Z,96.81
2018-10-04T03:08:20.998Z,96.64
2018-10-04T03:09:21.312Z,96.61
2018-10-04T03:10:21.454Z,96.64
2018-10-04T03:11:21.615Z,96.61
2018-10-04T03:12:21.929Z,96.51
2018-10-04T03:13:22.621Z,96.33
2018-10-04T03:14:23.203Z,96.39
2018-10-04T03:15:23.047Z,96.36
2018-10-04T03:16:24.055Z,96.09
2018-10-04T03:17:25.195Z,96.12
2018-10-04T03:18:24.575Z,95.98
2018-10-04T03:19:26.128Z,95.84
2018-10-04T03:20:25.029Z,95.64
2018-10-04T03:21:25.349Z,95.77
2018-10-04T03:22:26.171Z,96.07
2018-10-04T03:23:26.696Z,96.02
2018-10-04T03:24:28.134Z,96.09
2018-10-04T03:25:28.305Z,96.10
2018-10-04T03:26:27.201Z,95.66
2018-10-04T03:27:28.444Z,95.83
2018-10-04T03:28:28.262Z,95.71
2018-10-04T03:29:28.770Z,96.16
2018-10-04T03:30:29.085Z,95.95
2018-10-04T03:31:29.652Z,95.88
2018-10-04T03:32:31.020Z,95.98
2018-10-04T03:33:31.845Z,96.22
2018-10-04T03:34:31.076Z,96.16
2018-10-04T03:35:33.020Z,95.96
2018-10-04T03:36:33.510Z,95.69
2018-10-04T03:37:33.001Z,95.91
2018-10-04T03:38:33.832Z,95.98
2018-10-04T03:39:34.508Z,95.96
2018-10-04T03:40:36.007Z,95.90
2018-10-04T03:41:35.355Z,96.15
2018-10-04T03:42:36.870Z,96.49
2018-10-04T03:43:36.254Z,96.57
2018-10-04T03:44:36.667Z,96.68
2018-10-04T03:45:38.267Z,96.38
2018-10-04T03:46:38.542Z,96.38
2018-10-04T03:47:38.843Z,96.05
2018-10-04T03:48:39.087Z,96.80
2018-10-04T03:49:39.306Z,96.16
2018-10-04T03:50:39.843Z,96.62
2018-10-04T03:51:40.057Z,96.25
2018-10-04T03:52:40.295Z,96.22
2018-10-04T03:53:40.588Z,96.31
2018-10-04T03:54:40.909Z,96.45
2018-10-04T03:55:41.121Z,96.39
2018-10-04T03:56:41.643Z,96.35
2018-10-04T03:57:42.872Z,96.64
2018-10-04T03:58:41.833Z,96.53
2018-10-04T03:58:50.202Z,96.65
2018-10-04T03:59:51.411Z,96.69
2018-10-04T04:00:51.669Z,96.59
2018-10-04T04:01:51.933Z,96.13
2018-10-04T04:02:52.272Z,96.36
2018-10-04T04:03:52.553Z,96.62
2018-10-04T04:04:52.807Z,96.57
2018-10-04T04:05:52.231Z,96.77
2018-10-04T04:06:53.417Z,96.49
2018-10-04T04:07:53.636Z,96.76
2018-10-04T04:08:53.845Z,96.87
2018-10-04T04:09:54.126Z,96.51
2018-10-04T04:10:54.370Z,96.64
2018-10-04T04:11:54.835Z,96.93
2018-10-04T04:12:53.963Z,96.90
2018-10-04T04:13:55.258Z,96.90
2018-10-04T04:14:55.534Z,96.54
2018-10-04T04:15:55.769Z,96.51
2018-10-04T04:16:56.055Z,96.62
2018-10-04T04:17:56.292Z,96.97
2018-10-04T04:18:56.569Z,97.10
2018-10-04T04:19:56.855Z,97.13
2018-10-04T04:20:57.093Z,97.25
2018-10-04T04:21:57.446Z,96.94
2018-10-04T04:22:57.648Z,97.06
2018-10-04T04:23:57.845Z,97.66
2018-10-04T04:24:58.449Z,97.67
2018-10-04T04:25:57.718Z,97.63
2018-10-04T04:26:58.731Z,97.45
2018-10-04T04:27:58.976Z,97.84
2018-10-04T04:28:59.221Z,97.80
2018-10-04T04:29:59.527Z,97.71
2018-10-04T04:30:59.769Z,97.44
2018-10-04T04:32:00.012Z,97.50
2018-10-04T04:32:59.279Z,97.77
2018-10-04T04:34:00.561Z,97.67
2018-10-04T04:35:00.813Z,97.60
2018-10-04T04:36:01.603Z,97.53
2018-10-04T04:37:01.884Z,97.89
2018-10-04T04:38:02.179Z,97.83
2018-10-04T04:39:02.382Z,97.43
2018-10-04T04:40:02.631Z,97.26
2018-10-04T04:41:02.953Z,97.29
2018-10-04T04:42:02.195Z,97.57
2018-10-04T04:43:03.403Z,97.40
2018-10-04T04:44:03.700Z,97.54
2018-10-04T04:45:03.959Z,97.29
2018-10-04T04:46:04.649Z,97.50
2018-10-04T04:46:12.708Z,97.62
2018-10-04T04:47:14.170Z,97.64
2018-10-04T04:48:13.688Z,97.76
2018-10-04T04:49:14.937Z,97.74
2018-10-04T04:50:15.166Z,97.96
2018-10-04T04:51:15.439Z,97.96
2018-10-04T04:52:15.723Z,97.92
2018-10-04T04:53:15.975Z,97.78
2018-10-04T04:54:15.150Z,98.33
2018-10-04T04:55:16.352Z,98.63
2018-10-04T04:56:16.587Z,98.39
2018-10-04T04:57:15.921Z,98.29
2018-10-04T04:58:17.114Z,97.95
2018-10-04T04:59:17.490Z,97.89
2018-10-04T05:00:17.705Z,97.92
2018-10-04T05:01:18.137Z,98.22
2018-10-04T05:02:18.440Z,97.99
2018-10-04T05:03:18.848Z,98.17
2018-10-04T05:04:19.207Z,98.38
2018-10-04T05:05:19.579Z,98.41
2018-10-04T05:06:19.936Z,98.52
2018-10-04T05:07:19.131Z,98.26
2018-10-04T05:08:20.745Z,98.43
2018-10-04T05:09:21.062Z,98.28
2018-10-04T05:10:21.267Z,98.22
2018-10-04T05:11:21.511Z,98.23
2018-10-04T05:12:21.677Z,98.37
2018-10-04T05:13:21.997Z,98.14
2018-10-04T05:14:22.373Z,98.02
2018-10-04T05:15:22.711Z,98.05
2018-10-04T05:16:23.049Z,97.97
2018-10-04T05:17:23.124Z,98.41
2018-10-04T05:18:23.378Z,98.53
2018-10-04T05:19:23.620Z,98.11
2018-10-04T05:20:23.901Z,98.12
2018-10-04T05:21:24.220Z,97.84
2018-10-04T05:22:24.581Z,97.35
2018-10-04T05:23:23.887Z,97.65
2018-10-04T05:24:25.236Z,97.80
2018-10-04T05:25:25.570Z,97.99
2018-10-04T05:26:26.062Z,97.84
2018-10-04T05:27:26.289Z,98.14
2018-10-04T05:28:26.634Z,98.14
2018-10-04T05:29:26.894Z,97.88
2018-10-04T05:30:27.199Z,98.03
2018-10-04T05:30:35.506Z,98.83
2018-10-04T05:31:37.197Z,98.83
2018-10-04T05:32:37.717Z,98.51
2018-10-04T05:33:38.038Z,98.40
2018-10-04T05:34:38.341Z,98.51
2018-10-04T05:35:38.589Z,99.12
2018-10-04T05:36:38.905Z,98.91
2018-10-04T05:37:39.137Z,99.39
2018-10-04T05:38:39.367Z,100.00
2018-10-04T05:39:39.779Z,100.36
2018-10-04T05:40:40.135Z,100.34
2018-10-04T05:41:40.549Z,99.64
2018-10-04T05:42:40.934Z,99.82
2018-10-04T05:43:41.200Z,99.76
2018-10-04T05:44:41.386Z,99.54
2018-10-04T05:45:41.569Z,99.28
2018-10-04T05:46:41.953Z,98.90
2018-10-04T05:47:42.149Z,99.02
2018-10-04T05:48:42.539Z,98.73
2018-10-04T05:49:42.796Z,98.53
2018-10-04T05:50:43.031Z,98.61
2018-10-04T05:51:43.634Z,98.58
2018-10-04T05:52:44.111Z,98.67
2018-10-04T05:53:44.330Z,98.23
2018-10-04T05:54:44.635Z,97.91
2018-10-04T05:55:45.029Z,97.85
2018-10-04T05:56:44.248Z,97.92
2018-10-04T05:57:45.608Z,98.00
2018-10-04T05:58:45.880Z,97.94
2018-10-04T05:59:46.152Z,98.04
2018-10-04T06:00:46.416Z,98.12
2018-10-04T06:01:46.787Z,98.25
2018-10-04T06:02:47.194Z,98.00
2018-10-04T06:03:47.395Z,97.92
2018-10-04T06:04:47.657Z,97.92
2018-10-04T06:05:47.049Z,98.00
2018-10-04T06:06:48.319Z,97.80
2018-10-04T06:07:48.672Z,97.67
2018-10-04T06:08:49.628Z,97.67
2018-10-04T06:09:49.895Z,97.48
2018-10-04T06:10:50.109Z,97.34
2018-10-04T06:11:50.393Z,97.45
2018-10-04T06:12:50.610Z,97.22
2018-10-04T06:13:50.805Z,97.42
2018-10-04T06:13:59.167Z,97.35
2018-10-04T06:15:00.479Z,97.34
2018-10-04T06:15:59.658Z,97.20
2018-10-04T06:17:00.996Z,97.29
2018-10-04T06:18:01.385Z,96.91
2018-10-04T06:19:01.711Z,96.87
2018-10-04T06:20:02.011Z,96.79
2018-10-04T06:21:02.264Z,96.45
2018-10-04T06:22:02.742Z,96.69
2018-10-04T06:23:01.946Z,96.64
2018-10-04T06:24:03.210Z,96.57
2018-10-04T06:25:03.672Z,96.08
2018-10-04T06:26:04.012Z,96.30
2018-10-04T06:27:04.321Z,96.07
2018-10-04T06:28:04.550Z,95.90
2018-10-04T06:29:04.811Z,95.95
2018-10-04T06:30:05.010Z,95.95
2018-10-04T06:31:05.477Z,95.54
2018-10-04T06:32:05.927Z,95.33
2018-10-04T06:33:06.245Z,95.39
2018-10-04T06:34:06.660Z,95.34
2018-10-04T06:35:06.995Z,95.25
2018-10-04T06:36:07.290Z,94.85
2018-10-04T06:37:07.648Z,94.92
2018-10-04T06:38:07.824Z,94.72
2018-10-04T06:39:08.094Z,95.21
2018-10-04T06:40:08.320Z,94.42
2018-10-04T06:41:07.699Z,94.78
2018-10-04T06:42:08.959Z,94.04
2018-10-04T06:43:09.222Z,94.08
2018-10-04T06:44:09.457Z,93.77
2018-10-04T06:45:08.591Z,93.74
2018-10-04T06:46:10.050Z,93.87
2018-10-04T06:47:10.406Z,93.28
2018-10-04T06:48:10.617Z,92.84
2018-10-04T06:49:10.949Z,92.04
2018-10-04T06:50:11.181Z,92.04
2018-10-04T06:51:10.544Z,91.90
2018-10-04T06:52:11.942Z,91.61
2018-10-04T06:53:12.152Z,91.58
2018-10-04T06:54:12.580Z,91.61
2018-10-04T06:55:12.943Z,91.08
2018-10-04T06:56:13.347Z,90.91
2018-10-04T06:57:13.663Z,90.66
2018-10-04T06:58:14.115Z,90.29
2018-10-04T06:59:13.165Z,90.13
2018-10-04T07:00:14.640Z,89.42
2018-10-04T07:01:14.954Z,88.54
2018-10-04T07:02:15.396Z,89.33
2018-10-04T07:03:15.641Z,89.43
2018-10-04T07:03:24.002Z,89.31
2018-10-04T07:04:25.158Z,89.33
2018-10-04T07:05:25.358Z,89.28
2018-10-04T07:06:25.747Z,89.06
2018-10-04T07:07:25.982Z,88.87
2018-10-04T07:08:26.152Z,88.80
2018-10-04T07:09:26.523Z,88.79
2018-10-04T07:10:26.902Z,88.95
2018-10-04T07:11:27.146Z,88.89
2018-10-04T07:12:27.673Z,88.80
2018-10-04T07:13:27.871Z,88.32
2018-10-04T07:14:28.164Z,88.16
2018-10-04T07:15:28.616Z,88.22
2018-10-04T07:16:28.993Z,87.77
2018-10-04T07:17:29.502Z,87.69
2018-10-04T07:18:29.769Z,87.05
2018-10-04T07:19:30.104Z,86.79
2018-10-04T07:20:30.407Z,86.21
2018-10-04T07:21:29.572Z,85.31
2018-10-04T07:22:31.013Z,86.54
2018-10-04T07:23:31.097Z,85.85
2018-10-04T07:24:31.453Z,85.93
2018-10-04T07:25:31.646Z,85.59
2018-10-04T07:26:32.034Z,85.50
2018-10-04T07:27:32.422Z,84.74
2018-10-04T07:28:32.683Z,85.06
2018-10-04T07:29:33.166Z,85.01
2018-10-04T07:30:33.530Z,84.87
2018-10-04T07:31:33.740Z,84.75
2018-10-04T07:32:33.946Z,84.08
2018-10-04T07:33:34.460Z,84.30
2018-10-04T07:34:34.767Z,84.60
2018-10-04T07:35:34.978Z,84.56
2018-10-04T07:36:35.691Z,84.51
2018-10-04T07:37:36.127Z,84.39
2018-10-04T07:38:36.321Z,84.07
2018-10-04T07:39:36.576Z,83.76
2018-10-04T07:40:36.947Z,83.92
2018-10-04T07:41:37.179Z,83.71
2018-10-04T07:42:37.939Z,83.05
2018-10-04T07:43:37.160Z,83.16
2018-10-04T07:44:38.391Z,82.84
2018-10-04T07:45:38.928Z,83.02
2018-10-04T07:46:39.173Z,83.51
2018-10-04T07:47:39.609Z,82.91
2018-10-04T07:48:39.956Z,82.86
2018-10-04T07:48:50.036Z,82.88
2018-10-04T07:49:51.236Z,82.86
2018-10-04T07:50:51.346Z,82.34
2018-10-04T07:51:51.694Z,82.26
2018-10-04T07:52:51.949Z,81.63
2018-10-04T07:53:52.277Z,81.95
2018-10-04T07:54:52.703Z,81.96
2018-10-04T07:55:53.105Z,81.73
2018-10-04T07:56:53.618Z,81.10
2018-10-04T07:57:53.934Z,80.93
2018-10-04T07:58:54.208Z,80.47
2018-10-04T07:59:54.564Z,80.59
2018-10-04T08:00:54.835Z,79.68
2018-10-04T08:01:55.086Z,80.40
2018-10-04T08:02:55.315Z,79.12
2018-10-04T08:03:55.611Z,80.05
2018-10-04T08:04:55.799Z,80.00
2018-10-04T08:05:56.441Z,79.76
2018-10-04T08:06:55.815Z,79.52
2018-10-04T08:07:57.357Z,79.33
2018-10-04T08:08:57.948Z,79.80
2018-10-04T08:09:58.310Z,79.89
2018-10-04T08:10:58.628Z,79.12
2018-10-04T08:11:58.875Z,77.81
2018-10-04T08:12:59.765Z,77.58
2018-10-04T08:14:00.032Z,77.62
2018-10-04T08:15:00.445Z,77.50
2018-10-04T08:16:00.872Z,77.51
2018-10-04T08:17:01.075Z,76.11
2018-10-04T08:18:01.493Z,76.78
2018-10-04T08:19:01.674Z,77.10
2018-10-04T08:20:01.978Z,77.25
2018-10-04T08:21:02.463Z,76.80
2018-10-04T08:22:01.635Z,75.89
2018-10-04T08:23:02.999Z,75.85
2018-10-04T08:24:03.217Z,74.77
2018-10-04T08:25:03.486Z,76.03
2018-10-04T08:26:03.720Z,76.06
2018-10-04T08:27:03.973Z,75.62
2018-10-04T08:28:04.587Z,75.57
2018-10-04T08:29:04.885Z,75.03
2018-10-04T08:30:05.179Z,75.40
2018-10-04T08:31:05.588Z,75.55
2018-10-04T08:31:13.882Z,75.42
2018-10-04T08:32:15.148Z,75.57
2018-10-04T08:33:15.437Z,75.34
2018-10-04T08:34:15.812Z,75.46
2018-10-04T08:35:16.370Z,75.90
2018-10-04T08:36:15.675Z,75.29
2018-10-04T08:37:16.883Z,75.21
2018-10-04T08:38:17.095Z,74.90
2018-10-04T08:39:17.577Z,75.08
2018-10-04T08:40:17.879Z,75.37
2018-10-04T08:41:18.208Z,75.24
2018-10-04T08:42:18.491Z,75.77
2018-10-04T08:43:17.694Z,75.80
2018-10-04T08:44:18.944Z,77.11
2018-10-04T08:45:19.224Z,77.15
2018-10-04T08:46:19.491Z,77.08
2018-10-04T08:47:19.718Z,77.16
2018-10-04T08:48:20.269Z,77.00
2018-10-04T08:49:19.394Z,78.12
2018-10-04T08:50:20.749Z,77.96
2018-10-04T08:51:21.259Z,77.47
2018-10-04T08:52:21.572Z,77.32
2018-10-04T08:53:21.940Z,76.40
2018-10-04T08:54:22.382Z,76.86
2018-10-04T08:55:21.672Z,76.54
2018-10-04T08:56:22.979Z,76.10
2018-10-04T08:57:23.567Z,76.04
2018-10-04T08:58:23.922Z,75.58
2018-10-04T08:59:24.177Z,75.03
2018-10-04T09:00:23.516Z,75.32
2018-10-04T09:01:24.939Z,74.99
2018-10-04T09:02:25.287Z,74.88
2018-10-04T09:03:25.554Z,74.50
2018-10-04T09:04:26.080Z,74.51
2018-10-04T09:05:26.394Z,74.56
2018-10-04T09:06:26.742Z,74.90
2018-10-04T09:07:27.096Z,75.52
2018-10-04T09:08:26.425Z,75.91
2018-10-04T09:09:27.705Z,75.78
2018-10-04T09:10:28.043Z,75.66
2018-10-04T09:11:28.447Z,75.79
2018-10-04T09:12:28.692Z,75.94
2018-10-04T09:13:28.889Z,75.73
2018-10-04T09:14:29.375Z,75.72
2018-10-04T09:15:29.641Z,75.51
2018-10-04T09:16:29.875Z,74.87
2018-10-04T09:17:30.094Z,74.84
2018-10-04T09:18:30.378Z,74.92
2018-10-04T09:19:30.591Z,74.98
2018-10-04T09:19:38.910Z,75.26
2018-10-04T09:20:40.148Z,75.30
2018-10-04T09:21:40.517Z,75.36
2018-10-04T09:22:40.897Z,75.29
2018-10-04T09:23:41.347Z,74.91
2018-10-04T09:24:41.628Z,74.51
2018-10-04T09:25:42.069Z,74.99
2018-10-04T09:26:42.372Z,74.29
2018-10-04T09:27:42.560Z,73.72
2018-10-04T09:28:42.773Z,73.66
2018-10-04T09:29:43.250Z,74.14
2018-10-04T09:30:43.943Z,74.04
2018-10-04T09:31:44.365Z,74.18
2018-10-04T09:32:44.474Z,73.50
2018-10-04T09:33:44.890Z,73.90
2018-10-04T09:34:45.212Z,73.91
2018-10-04T09:35:45.485Z,73.70
2018-10-04T09:36:45.703Z,73.31
2018-10-04T09:37:46.062Z,72.96
2018-10-04T09:38:46.278Z,73.00
2018-10-04T09:39:46.651Z,72.42
2018-10-04T09:40:46.904Z,72.61
2018-10-04T09:41:47.082Z,72.84
2018-10-04T09:42:47.516Z,72.40
2018-10-04T09:43:47.853Z,72.89
2018-10-04T09:44:48.070Z,72.55
2018-10-04T09:45:48.497Z,72.28
2018-10-04T09:46:48.828Z,70.92
2018-10-04T09:47:49.060Z,70.71
2018-10-04T09:48:49.404Z,69.94
2018-10-04T09:49:49.671Z,68.89
2018-10-04T09:50:50.043Z,69.25
2018-10-04T09:51:50.490Z,69.51
2018-10-04T09:52:50.669Z,69.27
2018-10-04T09:53:50.870Z,69.67
2018-10-04T09:54:50.217Z,70.13
2018-10-04T09:55:52.181Z,69.66
2018-10-04T09:56:52.452Z,69.73
2018-10-04T09:57:52.673Z,70.08
2018-10-04T09:58:52.973Z,70.74
2018-10-04T09:59:53.316Z,71.23
2018-10-04T10:00:52.477Z,71.95
2018-10-04T10:01:53.718Z,73.13
2018-10-04T10:02:53.926Z,73.85
2018-10-04T10:03:54.180Z,74.41
2018-10-04T10:04:54.650Z,74.77
2018-10-04T10:05:03.094Z,74.64
2018-10-04T10:06:04.454Z,74.66
2018-10-04T10:07:04.739Z,74.32
2018-10-04T10:08:04.955Z,75.15
2018-10-04T10:09:05.264Z,75.71
2018-10-04T10:10:05.549Z,76.13
2018-10-04T10:11:05.787Z,75.51
2018-10-04T10:12:06.242Z,75.92
2018-10-04T10:13:06.796Z,75.89
2018-10-04T10:14:06.988Z,76.29
2018-10-04T10:15:07.302Z,76.87
2018-10-04T10:16:07.696Z,77.35
2018-10-04T10:17:08.065Z,77.63
2018-10-04T10:18:08.482Z,78.01
2018-10-04T10:19:08.681Z,78.07
2018-10-04T10:20:08.958Z,78.50
2018-10-04T10:21:09.450Z,78.48
2018-10-04T10:22:08.849Z,79.15
2018-10-04T10:23:10.300Z,79.25
2018-10-04T10:24:10.569Z,79.37
2018-10-04T10:25:10.954Z,79.46
2018-10-04T10:26:11.372Z,80.80
2018-10-04T10:27:11.838Z,80.81
2018-10-04T10:28:12.204Z,80.10
2018-10-04T10:29:12.409Z,80.21
2018-10-04T10:30:13.371Z,80.35
2018-10-04T10:31:13.852Z,80.04
2018-10-04T10:32:14.059Z,80.56
2018-10-04T10:33:14.324Z,80.43
2018-10-04T10:34:14.754Z,80.19
2018-10-04T10:35:14.988Z,79.79
2018-10-04T10:36:15.602Z,80.03
2018-10-04T10:37:16.217Z,80.23
2018-10-04T10:38:16.402Z,80.50
2018-10-04T10:39:16.643Z,80.50
2018-10-04T10:40:17.317Z,80.14
2018-10-04T10:41:16.478Z,79.85
2018-10-04T10:42:17.691Z,78.85
2018-10-04T10:43:17.992Z,77.84
2018-10-04T10:44:18.259Z,77.56
2018-10-04T10:45:18.778Z,77.69
2018-10-04T10:46:19.093Z,77.92
2018-10-04T10:47:19.259Z,77.42
2018-10-04T10:48:20.023Z,77.79
2018-10-04T10:48:28.496Z,76.69
2018-10-04T10:49:29.835Z,76.72
2018-10-04T10:50:30.224Z,76.69
2018-10-04T10:51:30.524Z,76.45
2018-10-04T10:52:31.139Z,76.47
2018-10-04T10:53:31.319Z,76.57
2018-10-04T10:54:31.532Z,76.83
2018-10-04T10:55:31.833Z,76.29
2018-10-04T10:56:32.071Z,75.90
2018-10-04T10:57:32.405Z,76.72
2018-10-04T10:58:32.808Z,76.23
2018-10-04T10:59:32.984Z,76.68
2018-10-04T11:00:33.258Z,77.44
2018-10-04T11:01:33.593Z,77.56
2018-10-04T11:02:33.995Z,77.69
2018-10-04T11:03:34.189Z,77.11
2018-10-04T11:04:34.585Z,76.59
2018-10-04T11:05:34.905Z,77.66
2018-10-04T11:06:35.290Z,76.35
2018-10-04T11:07:35.560Z,75.66
2018-10-04T11:08:36.176Z,76.38
2018-10-04T11:09:36.502Z,78.20
2018-10-04T11:10:38.465Z,78.22
2018-10-04T11:11:36.128Z,77.08
2018-10-04T11:12:37.279Z,76.04
2018-10-04T11:13:37.526Z,77.51
2018-10-04T11:14:37.790Z,78.65
2018-10-04T11:15:38.052Z,78.56
2018-10-04T11:16:38.433Z,78.12
2018-10-04T11:17:38.790Z,78.55
2018-10-04T11:18:39.237Z,75.85
2018-10-04T11:19:39.581Z,78.79
2018-10-04T11:20:39.878Z,78.94
2018-10-04T11:21:40.088Z,77.81
2018-10-04T11:22:40.389Z,78.14
2018-10-04T11:23:40.920Z,77.25
2018-10-04T11:24:41.380Z,75.97
2018-10-04T11:25:41.792Z,77.71
2018-10-04T11:26:42.083Z,77.82
2018-10-04T11:27:42.491Z,77.59
2018-10-04T11:28:42.809Z,76.84
2018-10-04T11:29:43.297Z,77.57
2018-10-04T11:30:43.566Z,77.86
2018-10-04T11:30:51.943Z,78.02
2018-10-04T11:31:53.210Z,78.00
2018-10-04T11:32:53.506Z,77.93
2018-10-04T11:33:53.704Z,78.57
2018-10-04T11:34:54.009Z,79.11
2018-10-04T11:35:54.257Z,79.65
2018-10-04T11:36:54.555Z,79.07
2018-10-04T11:37:54.959Z,77.92
2018-10-04T11:38:55.281Z,78.78
2018-10-04T11:39:55.707Z,78.49
2018-10-04T11:40:55.981Z,79.39
2018-10-04T11:41:56.380Z,80.10
2018-10-04T11:42:56.546Z,79.94
2018-10-04T11:43:56.810Z,81.15
2018-10-04T11:44:57.119Z,82.01
2018-10-04T11:45:57.404Z,81.50
2018-10-04T11:46:57.616Z,80.90
2018-10-04T11:47:58.012Z,81.44
2018-10-04T11:48:58.299Z,81.16
2018-10-04T11:49:58.670Z,81.35
2018-10-04T11:50:59.048Z,81.78
2018-10-04T11:51:59.384Z,80.33
2018-10-04T11:52:59.695Z,80.32
2018-10-04T11:53:59.884Z,81.13
2018-10-04T11:55:00.335Z,80.87
2018-10-04T11:56:00.576Z,80.05
2018-10-04T11:57:00.827Z,79.82
2018-10-04T11:58:01.510Z,79.65
2018-10-04T11:59:01.870Z,79.34
2018-10-04T12:00:02.068Z,76.26
2018-10-04T12:01:02.394Z,78.92
2018-10-04T12:02:01.574Z,78.36
2018-10-04T12:03:03.001Z,78.67
2018-10-04T12:04:03.402Z,77.78
2018-10-04T12:05:03.551Z,77.64
2018-10-04T12:06:04.008Z,77.52
2018-10-04T12:07:04.254Z,75.20
2018-10-04T12:08:03.498Z,75.57
2018-10-04T12:09:04.728Z,74.43
2018-10-04T12:10:05.004Z,72.84
2018-10-04T12:11:05.435Z,72.54
2018-10-04T12:12:05.749Z,72.18
2018-10-04T12:13:06.038Z,71.78
2018-10-04T12:14:06.397Z,72.78
2018-10-04T12:15:06.939Z,71.64
2018-10-04T12:16:07.195Z,70.96
2018-10-04T12:16:15.617Z,70.26
2018-10-04T12:17:16.859Z,69.92
2018-10-04T12:18:17.063Z,69.10
2018-10-04T12:19:17.290Z,67.75
2018-10-04T12:20:17.474Z,68.72
2018-10-04T12:21:17.897Z,69.11
2018-10-04T12:22:18.345Z,69.42
2018-10-04T12:23:18.712Z,69.78
2018-10-04T12:24:18.958Z,70.32
2018-10-04T12:25:19.376Z,69.88
2018-10-04T12:26:18.976Z,69.64
2018-10-04T12:27:20.384Z,69.70
2018-10-04T12:28:20.834Z,67.92
2018-10-04T12:29:21.087Z,65.53
2018-10-04T12:30:21.255Z,65.05
2018-10-04T12:31:21.827Z,65.37
2018-10-04T12:32:21.184Z,65.80
2018-10-04T12:33:22.431Z,66.10
2018-10-04T12:34:22.959Z,66.49
2018-10-04T12:35:23.177Z,66.74
2018-10-04T12:36:23.527Z,66.94
2018-10-04T12:37:24.117Z,66.49
2018-10-04T12:38:23.312Z,63.58
2018-10-04T12:39:24.515Z,63.43
2018-10-04T12:40:24.793Z,62.99
2018-10-04T12:41:25.353Z,63.02
2018-10-04T12:42:25.932Z,63.24
2018-10-04T12:43:26.156Z,62.78
2018-10-04T12:44:26.504Z,62.96